createdAt,value
2022-10-11T00:00:54.319Z,99013.91
2022-10-11T00:03:22.082Z,99014.31
2022-10-11T00:05:49.436Z,99010.31
2022-10-11T00:08:17.275Z,99018.28
2022-10-11T00:11:03.907Z,99016.31
2022-10-11T00:13:41.422Z,99015.91
2022-10-11T00:16:18.940Z,99019.91
2022-10-11T00:18:56.476Z,99021.88
2022-10-11T00:21:34.069Z,99027.06
2022-10-11T00:24:12.556Z,99023.06
2022-10-11T00:26:50.067Z,99015.09
2022-10-11T00:29:27.584Z,99022.28
2022-10-11T00:32:06.125Z,99012.72
2022-10-11T00:34:43.848Z,99026.69
2022-10-11T00:37:21.720Z,99032.63
2022-10-11T00:40:00.204Z,99031.84
2022-10-11T00:42:37.864Z,99028.66
2022-10-11T00:45:27.413Z,99035.44
2022-10-11T00:48:17.443Z,99033.81
2022-10-11T00:50:58.296Z,99031.84
2022-10-11T00:53:35.820Z,99035.84
2022-10-11T00:56:35.690Z,99027.44
2022-10-11T00:59:21.487Z,99027.44
2022-10-11T01:01:59.056Z,99034.63
2022-10-11T01:04:36.611Z,99037.34
2022-10-11T01:07:14.977Z,99039.00
2022-10-11T01:09:52.483Z,99048.13
2022-10-11T01:12:31.526Z,99048.53
2022-10-11T01:15:31.317Z,99051.31
2022-10-11T01:18:26.679Z,99038.94
2022-10-11T01:21:34.646Z,99046.53
2022-10-11T01:25:18.392Z,99052.09
2022-10-11T01:28:43.531Z,99050.91
2022-10-11T01:31:53.385Z,99058.88
2022-10-11T01:35:06.435Z,99058.44
2022-10-11T01:38:07.205Z,99055.59
2022-10-11T01:41:04.329Z,99058.03
2022-10-11T01:43:42.525Z,99058.44
2022-10-11T01:46:21.192Z,99067.63
2022-10-11T01:49:03.151Z,99052.09
2022-10-11T01:51:48.406Z,99044.50
2022-10-11T01:55:29.822Z,99051.66
2022-10-11T01:58:30.738Z,99052.47
2022-10-11T02:01:31.806Z,99054.84
2022-10-11T02:04:52.366Z,99042.47
2022-10-11T02:08:11.382Z,99048.47
2022-10-11T02:11:18.653Z,99048.91
2022-10-11T02:14:23.264Z,99043.72
2022-10-11T02:17:12.807Z,99048.88
2022-10-11T02:19:55.233Z,99042.81
2022-10-11T02:22:40.608Z,99044.03
2022-10-11T02:25:29.810Z,99043.25
2022-10-11T02:28:28.103Z,99029.72
2022-10-11T02:31:08.371Z,99042.81
2022-10-11T02:34:00.717Z,99038.00
2022-10-11T02:38:00.508Z,99044.41
2022-10-11T02:40:44.514Z,99041.97
2022-10-11T02:43:44.792Z,99034.88
2022-10-11T02:46:22.804Z,99034.41
2022-10-11T02:49:01.112Z,99038.00
2022-10-11T02:51:39.040Z,99030.06
2022-10-11T02:54:16.855Z,99037.22
2022-10-11T02:56:54.380Z,99034.81
2022-10-11T02:59:31.904Z,99036.84
2022-10-11T03:02:09.408Z,99043.56
2022-10-11T03:04:47.000Z,99041.97
2022-10-11T03:07:24.556Z,99040.44
2022-10-11T03:10:03.081Z,99037.59
2022-10-11T03:12:40.593Z,99038.72
2022-10-11T03:15:18.193Z,99045.00
2022-10-11T03:17:55.892Z,99039.44
2022-10-11T03:20:33.701Z,99039.56
2022-10-11T03:23:13.076Z,99039.56
2022-10-11T03:25:52.029Z,99038.34
2022-10-11T03:28:29.699Z,99045.09
2022-10-11T03:31:07.320Z,99042.72
2022-10-11T03:33:45.105Z,99045.19
2022-10-11T03:36:23.574Z,99052.28
2022-10-11T03:39:03.050Z,99057.06
2022-10-11T03:41:41.374Z,99047.09
2022-10-11T03:44:18.924Z,99051.47
2022-10-11T03:46:56.457Z,99045.53
2022-10-11T03:49:33.997Z,99035.91
2022-10-11T03:52:12.134Z,99041.88
2022-10-11T03:54:49.644Z,99038.59
2022-10-11T03:57:27.481Z,99041.03
2022-10-11T04:00:07.750Z,99043.84
2022-10-11T04:02:45.263Z,99044.22
2022-10-11T04:05:22.906Z,99056.97
2022-10-11T04:08:01.222Z,99049.81
2022-10-11T04:10:40.018Z,99046.63
2022-10-11T04:13:18.255Z,99051.84
2022-10-11T04:15:55.855Z,99054.97
2022-10-11T04:18:33.404Z,99050.16
2022-10-11T04:21:11.144Z,99053.69
2022-10-11T04:23:48.700Z,99064.13
2022-10-11T04:26:26.649Z,99060.94
2022-10-11T04:29:04.593Z,99058.56
2022-10-11T04:31:42.207Z,99061.72
2022-10-11T04:34:19.754Z,99068.75
2022-10-11T04:36:57.415Z,99071.94
2022-10-11T04:39:35.047Z,99077.13
2022-10-11T04:42:12.900Z,99075.94
2022-10-11T04:44:51.253Z,99078.28
2022-10-11T04:47:28.809Z,99085.34
2022-10-11T04:50:09.718Z,99079.88
2022-10-11T04:52:47.245Z,99077.97
2022-10-11T04:55:24.869Z,99082.09
2022-10-11T04:58:02.441Z,99082.09
2022-10-11T05:00:39.956Z,99081.72
2022-10-11T05:03:17.459Z,99085.81
2022-10-11T05:05:55.048Z,99082.19
2022-10-11T05:08:32.818Z,99085.34
2022-10-11T05:11:16.105Z,99085.69
2022-10-11T05:13:53.901Z,99090.78
2022-10-11T05:16:31.556Z,99091.03
2022-10-11T05:19:09.117Z,99094.22
2022-10-11T05:21:46.756Z,99091.72
2022-10-11T05:24:24.325Z,99093.22
2022-10-11T05:27:04.616Z,99088.34
2022-10-11T05:29:42.521Z,99094.72
2022-10-11T05:32:20.069Z,99090.66
2022-10-11T05:34:57.817Z,99105.69
2022-10-11T05:37:35.354Z,99115.84
2022-10-11T05:40:13.357Z,99107.63
2022-10-11T05:42:51.680Z,99113.75
2022-10-11T05:45:29.196Z,99110.03
2022-10-11T05:48:07.041Z,99119.91
2022-10-11T05:50:44.560Z,99112.88
2022-10-11T05:53:22.194Z,99110.84
2022-10-11T05:56:00.141Z,99128.03
2022-10-11T05:58:39.412Z,99124.78
2022-10-11T06:01:24.744Z,99124.59
2022-10-11T06:04:02.666Z,99131.41
2022-10-11T06:06:40.175Z,99135.03
2022-10-11T06:09:17.740Z,99137.84
2022-10-11T06:11:55.292Z,99130.84
2022-10-11T06:14:32.819Z,99142.84
2022-10-11T06:17:10.716Z,99136.56
2022-10-11T06:19:48.270Z,99151.13
2022-10-11T06:22:26.692Z,99148.75
2022-10-11T06:25:05.145Z,99148.28
2022-10-11T06:27:42.699Z,99157.34
2022-10-11T06:30:20.236Z,99148.97
2022-10-11T06:33:02.383Z,99148.25
2022-10-11T06:35:42.048Z,99149.34
2022-10-11T06:38:19.611Z,99152.38
2022-10-11T06:40:57.807Z,99163.38
2022-10-11T06:43:35.655Z,99164.38
2022-10-11T06:46:15.651Z,99162.91
2022-10-11T06:48:54.028Z,99163.47
2022-10-11T06:51:32.976Z,99153.75
2022-10-11T06:54:14.245Z,99155.56
2022-10-11T06:56:51.773Z,99164.59
2022-10-11T06:59:29.275Z,99170.75
2022-10-11T07:02:07.144Z,99164.81
2022-10-11T07:04:44.760Z,99175.34
2022-10-11T07:07:22.364Z,99175.84
2022-10-11T07:09:59.879Z,99181.59
2022-10-11T07:12:37.410Z,99181.50
2022-10-11T07:15:15.226Z,99181.28
2022-10-11T07:17:52.904Z,99189.09
2022-10-11T07:20:30.507Z,99192.72
2022-10-11T07:23:08.030Z,99193.44
2022-10-11T07:25:46.605Z,99186.94
2022-10-11T07:28:26.502Z,99192.22
2022-10-11T07:31:22.630Z,99194.78
2022-10-11T07:34:00.346Z,99195.91
2022-10-11T07:36:37.873Z,99197.66
2022-10-11T07:39:15.727Z,99187.91
2022-10-11T07:41:53.249Z,99197.84
2022-10-11T07:44:31.843Z,99199.81
2022-10-11T07:47:11.437Z,99202.41
2022-10-11T07:49:56.520Z,99207.88
2022-10-11T07:52:46.486Z,99193.78
2022-10-11T07:55:34.388Z,99192.16
2022-10-11T07:58:40.517Z,99205.53
2022-10-11T08:01:27.564Z,99201.81
2022-10-11T08:04:10.949Z,99215.69
2022-10-11T08:06:53.669Z,99205.41
2022-10-11T08:09:57.466Z,99211.25
2022-10-11T08:12:41.522Z,99202.34
2022-10-11T08:15:29.281Z,99206.31
2022-10-11T08:18:19.375Z,99213.84
2022-10-11T08:21:08.028Z,99203.06
2022-10-11T08:23:52.884Z,99215.09
2022-10-11T08:26:48.004Z,99210.53
2022-10-11T08:29:47.814Z,99222.38
2022-10-11T08:32:36.115Z,99225.44
2022-10-11T08:35:21.748Z,99215.81
2022-10-11T08:38:12.544Z,99225.09
2022-10-11T08:41:01.917Z,99219.88
2022-10-11T08:45:10.901Z,99225.00
2022-10-11T08:48:18.911Z,99222.81
2022-10-11T08:51:11.861Z,99228.06
2022-10-11T08:54:42.262Z,99224.69
2022-10-11T08:57:37.759Z,99224.34
2022-10-11T09:00:21.220Z,99234.22
2022-10-11T09:03:47.242Z,99229.16
2022-10-11T09:07:45.001Z,99228.88
2022-10-11T09:11:22.504Z,99239.00
2022-10-11T09:14:36.647Z,99232.19
2022-10-11T09:18:21.335Z,99237.19
2022-10-11T09:21:53.510Z,99237.56
2022-10-11T09:25:22.360Z,99237.69
2022-10-11T09:28:42.569Z,99228.13
2022-10-11T09:31:15.366Z,99234.53
2022-10-11T09:33:55.634Z,99247.97
2022-10-11T09:37:32.939Z,99243.75
2022-10-11T09:40:59.973Z,99232.66
2022-10-11T09:43:31.141Z,99239.63
2022-10-11T09:46:02.344Z,99245.59
2022-10-11T09:48:47.048Z,99237.13
2022-10-11T09:51:39.693Z,99244.84
2022-10-11T09:54:19.439Z,99244.72
2022-10-11T09:56:52.854Z,99251.16
2022-10-11T09:59:37.996Z,99247.53
2022-10-11T10:02:25.127Z,99249.16
2022-10-11T10:05:28.220Z,99247.69
2022-10-11T10:08:09.724Z,99241.78
2022-10-11T10:10:57.048Z,99230.94
2022-10-11T10:13:51.810Z,99233.56
2022-10-11T10:16:39.541Z,99225.97
2022-10-11T10:19:27.471Z,99243.94
2022-10-11T10:21:57.517Z,99233.56
2022-10-11T10:24:34.392Z,99229.19
2022-10-11T10:27:28.953Z,99238.78
2022-10-11T10:30:10.134Z,99247.53
2022-10-11T10:33:19.917Z,99234.75
2022-10-11T10:36:15.946Z,99234.75
2022-10-11T10:39:44.966Z,99232.81
2022-10-11T10:42:24.284Z,99232.00
2022-10-11T10:45:01.805Z,99232.28
2022-10-11T10:48:26.971Z,99235.81
2022-10-11T10:51:55.994Z,99229.00
2022-10-11T10:55:17.891Z,99227.09
2022-10-11T10:58:37.912Z,99220.66
2022-10-11T11:02:21.480Z,99225.84
2022-10-11T11:05:41.415Z,99215.56
2022-10-11T11:08:57.134Z,99219.94
2022-10-11T11:12:38.936Z,99220.00
2022-10-11T11:15:53.043Z,99217.13
2022-10-11T11:19:39.494Z,99209.50
2022-10-11T11:23:16.503Z,99215.50
2022-10-11T11:26:35.267Z,99209.16
2022-10-11T11:29:58.101Z,99199.22
2022-10-11T11:33:36.418Z,99199.94
2022-10-11T11:36:43.534Z,99205.03
2022-10-11T11:39:50.287Z,99208.53
2022-10-11T11:42:48.776Z,99195.03
2022-10-11T11:49:39.283Z,99183.53
2022-10-11T11:53:12.324Z,99188.63
2022-10-11T11:56:45.386Z,99191.56
2022-10-11T12:00:06.298Z,99188.78
2022-10-11T12:03:44.210Z,99183.06
2022-10-11T12:06:52.367Z,99183.25
2022-10-11T12:09:43.941Z,99180.34
2022-10-11T12:12:46.934Z,99188.44
2022-10-11T12:16:04.369Z,99182.00
2022-10-11T12:22:35.435Z,99186.13
2022-10-11T12:27:07.819Z,99177.63
2022-10-11T12:32:48.723Z,99188.91
2022-10-11T12:35:35.145Z,99182.94
2022-10-11T12:38:38.352Z,99172.94
2022-10-11T12:44:53.111Z,99166.84
2022-10-11T12:48:40.739Z,99168.84
2022-10-11T12:52:23.779Z,99168.13
2022-10-11T12:56:16.934Z,99173.63
2022-10-11T12:59:54.146Z,99165.75
2022-10-11T13:02:54.660Z,99160.59
2022-10-11T13:09:49.211Z,99169.72
2022-10-11T13:13:19.306Z,99166.59
2022-10-11T13:19:34.145Z,99170.84
2022-10-11T13:22:33.229Z,99164.41
2022-10-11T13:25:19.360Z,99158.44
2022-10-11T13:28:04.153Z,99164.91
2022-10-11T13:33:43.920Z,99152.16
2022-10-11T13:36:26.944Z,99154.91
2022-10-11T13:39:15.190Z,99150.59
2022-10-11T13:41:52.681Z,99156.22
2022-10-11T13:44:48.411Z,99155.44
2022-10-11T13:47:39.718Z,99152.97
2022-10-11T13:54:05.463Z,99143.88
2022-10-11T13:56:59.647Z,99142.69
2022-10-11T13:59:49.018Z,99148.25
2022-10-11T14:02:35.608Z,99146.25
2022-10-11T14:06:01.135Z,99141.00
2022-10-11T14:09:01.779Z,99138.22
2022-10-11T14:11:46.121Z,99149.47
2022-10-11T14:14:47.691Z,99141.06
2022-10-11T14:18:07.893Z,99143.41
2022-10-11T14:21:10.890Z,99149.84
2022-10-11T14:24:08.849Z,99144.19
2022-10-11T14:27:02.835Z,99147.81
2022-10-11T14:30:23.475Z,99145.84
2022-10-11T14:33:24.583Z,99156.22
2022-10-11T14:36:07.528Z,99147.44
2022-10-11T14:38:48.884Z,99162.22
2022-10-11T14:41:27.502Z,99150.25
2022-10-11T14:44:03.043Z,99149.44
2022-10-11T14:46:45.253Z,99142.69
2022-10-11T14:49:32.782Z,99135.09
2022-10-11T14:52:28.012Z,99137.50
2022-10-11T14:55:04.871Z,99145.06
2022-10-11T14:57:38.880Z,99147.44
2022-10-11T15:00:45.869Z,99141.06
2022-10-11T15:03:22.952Z,99145.06
2022-10-11T15:06:01.366Z,99147.44
2022-10-11T15:08:33.122Z,99135.91
2022-10-11T15:11:17.180Z,99143.41
2022-10-11T15:13:52.505Z,99139.78
2022-10-11T15:17:06.854Z,99129.47
2022-10-11T15:19:52.361Z,99137.50
2022-10-11T15:25:17.763Z,99136.31
2022-10-11T15:28:09.243Z,99126.22
2022-10-11T15:30:42.991Z,99138.22
2022-10-11T15:33:15.300Z,99139.09
2022-10-11T15:35:52.487Z,99126.72
2022-10-11T15:38:32.349Z,99131.50
2022-10-11T15:41:00.771Z,99119.53
2022-10-11T15:43:31.528Z,99122.75
2022-10-11T15:46:11.255Z,99130.28
2022-10-11T15:48:42.009Z,99125.91
2022-10-11T15:51:15.301Z,99118.69
2022-10-11T15:53:55.762Z,99118.69
2022-10-11T15:56:33.891Z,99117.88
2022-10-11T15:59:10.126Z,99121.88
2022-10-11T16:01:49.011Z,99119.91
2022-10-11T16:04:19.391Z,99126.72
2022-10-11T16:06:55.442Z,99121.09
2022-10-11T16:09:31.913Z,99119.50
2022-10-11T16:12:08.331Z,99117.50
2022-10-11T16:14:50.174Z,99127.47
2022-10-11T16:17:24.595Z,99124.28
2022-10-11T16:20:06.491Z,99117.47
2022-10-11T16:22:42.701Z,99123.50
2022-10-11T16:25:12.725Z,99131.91
2022-10-11T16:27:47.402Z,99144.16
2022-10-11T16:30:27.657Z,99136.22
2022-10-11T16:32:56.244Z,99128.63
2022-10-11T16:35:25.478Z,99142.94
2022-10-11T16:38:05.000Z,99126.75
2022-10-11T16:40:39.485Z,99133.03
2022-10-11T16:43:10.397Z,99136.63
2022-10-11T16:45:49.645Z,99138.69
2022-10-11T16:48:25.121Z,99143.06
2022-10-11T16:51:06.258Z,99145.47
2022-10-11T16:53:53.217Z,99149.06
2022-10-11T16:56:44.807Z,99150.94
2022-10-11T16:59:29.295Z,99151.25
2022-10-11T17:02:01.910Z,99155.03
2022-10-11T17:04:47.821Z,99147.03
2022-10-11T17:07:24.289Z,99150.25
2022-10-11T17:10:09.581Z,99146.31
2022-10-11T17:12:59.896Z,99159.75
2022-10-11T17:15:31.628Z,99156.53
2022-10-11T17:18:13.968Z,99152.28
2022-10-11T17:20:46.517Z,99149.59
2022-10-11T17:23:17.232Z,99161.50
2022-10-11T17:25:55.078Z,99158.53
2022-10-11T17:28:35.236Z,99157.25
2022-10-11T17:31:09.273Z,99164.84
2022-10-11T17:33:57.776Z,99168.47
2022-10-11T17:36:35.391Z,99169.63
2022-10-11T17:39:40.431Z,99169.16
2022-10-11T17:42:23.556Z,99164.31
2022-10-11T17:45:07.457Z,99165.53
2022-10-11T17:47:40.573Z,99166.84
2022-10-11T17:50:18.145Z,99163.69
2022-10-11T17:52:51.320Z,99170.84
2022-10-11T17:55:24.670Z,99172.81
2022-10-11T17:58:03.585Z,99175.09
2022-10-11T18:00:39.570Z,99166.53
2022-10-11T18:03:25.229Z,99165.84
2022-10-11T18:06:18.092Z,99162.94
2022-10-11T18:08:57.429Z,99174.34
2022-10-11T18:11:35.024Z,99163.84
2022-10-11T18:14:21.733Z,99163.38
2022-10-11T18:17:07.008Z,99169.16
2022-10-11T18:19:47.675Z,99159.94
2022-10-11T18:22:26.750Z,99158.00
2022-10-11T18:25:01.439Z,99160.78
2022-10-11T18:27:45.441Z,99159.88
2022-10-11T18:30:45.642Z,99158.84
2022-10-11T18:33:18.795Z,99165.13
2022-10-11T18:35:49.479Z,99159.16
2022-10-11T18:38:31.385Z,99157.50
2022-10-11T18:41:12.924Z,99163.47
2022-10-11T18:43:41.292Z,99174.84
2022-10-11T18:46:28.658Z,99163.41
2022-10-11T18:49:09.021Z,99163.09
2022-10-11T18:51:49.740Z,99166.69
2022-10-11T18:54:47.923Z,99171.97
2022-10-11T18:57:32.790Z,99175.41
2022-10-11T19:03:18.415Z,99169.81
2022-10-11T19:05:51.686Z,99173.22
2022-10-11T19:08:31.272Z,99166.88
2022-10-11T19:11:25.281Z,99174.41
2022-10-11T19:14:21.951Z,99166.34
2022-10-11T19:16:55.861Z,99158.00
2022-10-11T19:19:35.550Z,99169.69
2022-10-11T19:22:08.435Z,99166.88
2022-10-11T19:24:41.102Z,99170.13
2022-10-11T19:27:19.309Z,99156.69
2022-10-11T19:29:54.517Z,99162.88
2022-10-11T19:32:34.915Z,99163.09
2022-10-11T19:35:19.023Z,99165.88
2022-10-11T19:37:50.172Z,99165.88
2022-10-11T19:40:38.076Z,99168.38
2022-10-11T19:43:17.650Z,99169.13
2022-10-11T19:46:07.835Z,99173.22
2022-10-11T19:48:57.447Z,99167.50
2022-10-11T19:51:40.575Z,99164.63
2022-10-11T19:54:48.754Z,99170.03
2022-10-11T19:57:22.668Z,99173.72
2022-10-11T20:00:15.935Z,99171.47
2022-10-11T20:02:58.436Z,99171.16
2022-10-11T20:05:38.006Z,99183.97
2022-10-11T20:08:26.777Z,99187.59
2022-10-11T20:11:16.897Z,99180.00
2022-10-11T20:14:00.571Z,99183.03
2022-10-11T20:16:44.723Z,99185.63
2022-10-11T20:19:31.815Z,99184.47
2022-10-11T20:22:10.224Z,99179.00
2022-10-11T20:25:15.592Z,99179.84
2022-10-11T20:27:54.469Z,99181.28
2022-10-11T20:30:56.280Z,99187.00
2022-10-11T20:33:39.666Z,99186.19
2022-10-11T20:36:23.246Z,99194.00
2022-10-11T20:39:03.606Z,99197.94
2022-10-11T20:41:46.830Z,99193.75
2022-10-11T20:44:21.459Z,99187.25
2022-10-11T20:47:03.976Z,99187.66
2022-10-11T20:49:44.325Z,99183.72
2022-10-11T20:52:29.962Z,99183.88
2022-10-11T20:55:12.729Z,99193.28
2022-10-11T20:57:45.614Z,99193.81
2022-10-11T21:00:46.422Z,99190.03
2022-10-11T21:03:28.524Z,99199.47
2022-10-11T21:06:12.779Z,99198.16
2022-10-11T21:08:51.503Z,99194.66
2022-10-11T21:11:47.043Z,99201.81
2022-10-11T21:17:37.668Z,99201.16
2022-10-11T21:20:33.488Z,99200.06
2022-10-11T21:23:10.180Z,99191.03
2022-10-11T21:25:50.507Z,99196.88
2022-10-11T21:28:23.469Z,99198.78
2022-10-11T21:31:32.946Z,99200.50
2022-10-11T21:34:51.339Z,99203.50
2022-10-11T21:37:53.064Z,99189.78
2022-10-11T21:44:59.545Z,99196.19
2022-10-11T21:52:35.036Z,99182.59
2022-10-11T21:55:57.373Z,99184.22
2022-10-11T21:59:12.230Z,99180.34
2022-10-11T22:01:50.416Z,99173.66
2022-10-11T22:04:24.274Z,99187.66
2022-10-11T22:07:00.536Z,99188.88
2022-10-11T22:12:26.772Z,99193.56
2022-10-11T22:15:06.741Z,99193.88
2022-10-11T22:17:42.374Z,99184.91
2022-10-11T22:31:23.115Z,99188.50
2022-10-11T22:35:39.957Z,99183.50
2022-10-11T22:41:52.388Z,99169.44
2022-10-11T22:45:51.176Z,99166.16
2022-10-11T22:48:15.982Z,99170.66
2022-10-11T22:52:11.196Z,99173.06
2022-10-11T22:59:13.826Z,99177.81
2022-10-11T23:02:23.033Z,99176.28
2022-10-11T23:09:49.923Z,99166.97
2022-10-11T23:14:12.453Z,99180.47
2022-10-11T23:24:22.997Z,99185.41
2022-10-11T23:27:54.144Z,99185.47
2022-10-11T23:35:01.234Z,99181.47
2022-10-11T23:50:25.190Z,99189.59
2022-10-11T23:57:58.554Z,99174.97
